createdAt,value
2018-12-25T00:08:02.599Z,-1.80
2018-12-25T00:10:51.374Z,-1.80
2018-12-25T00:19:45.446Z,-1.70
2018-12-25T00:34:38.778Z,-1.50
2018-12-25T00:37:27.602Z,-1.50
2018-12-25T00:52:46.167Z,-1.30
2018-12-25T01:01:41.291Z,-1.20
2018-12-25T01:16:46.350Z,-1.10
2018-12-25T01:22:23.195Z,-0.80
2018-12-25T01:27:57.756Z,-0.70
2018-12-25T02:20:02.533Z,-0.40
2018-12-25T02:34:34.628Z,-0.30
2018-12-25T02:37:23.439Z,-0.30
2018-12-25T02:46:03.189Z,-0.30
2018-12-25T02:48:51.939Z,-0.20
2018-12-25T02:51:36.533Z,-0.20
2018-12-25T03:06:40.531Z,-0.20
2018-12-25T03:24:35.667Z,-0.10
2018-12-25T03:27:24.423Z,0.00
2018-12-25T03:30:08.888Z,0.00
2018-12-25T03:32:55.571Z,0.00
2018-12-25T03:35:42.221Z,0.00
2018-12-25T03:38:29.280Z,0.10
2018-12-25T03:41:16.101Z,0.10
2018-12-25T03:44:01.956Z,0.20
2018-12-25T03:46:31.719Z,0.20
2018-12-25T03:49:01.468Z,0.20
2018-12-25T04:36:14.667Z,0.20
2018-12-25T04:38:44.434Z,0.10
2018-12-25T04:41:14.195Z,0.20
2018-12-25T04:43:43.969Z,0.10
2018-12-25T04:46:13.779Z,0.20
2018-12-25T04:48:43.541Z,0.10
2018-12-25T04:51:13.386Z,0.20
2018-12-25T04:53:43.225Z,0.20
2018-12-25T04:56:12.986Z,0.20
2018-12-25T04:58:42.752Z,0.20
2018-12-25T05:01:12.591Z,0.20
2018-12-25T05:03:42.351Z,0.20
2018-12-25T05:06:31.052Z,0.20
2018-12-25T05:09:00.922Z,0.20
2018-12-25T05:11:30.685Z,0.20
2018-12-25T05:14:00.458Z,0.30
2018-12-25T05:16:30.423Z,0.30
2018-12-25T05:19:00.186Z,0.30
2018-12-25T05:21:29.942Z,0.30
2018-12-25T05:24:18.643Z,0.40
2018-12-25T05:26:48.407Z,0.30
2018-12-25T05:29:18.159Z,0.30
2018-12-25T05:31:47.928Z,0.30
2018-12-25T05:34:17.792Z,0.30
2018-12-25T05:36:47.563Z,0.30
2018-12-25T05:39:17.398Z,0.30
2018-12-25T05:41:47.155Z,0.30
2018-12-25T05:44:16.918Z,0.20
2018-12-25T05:46:46.763Z,0.20
2018-12-25T05:49:16.530Z,0.20
2018-12-25T05:51:46.294Z,0.10
2018-12-25T05:54:16.072Z,0.10
2018-12-25T05:56:45.911Z,0.10
2018-12-25T05:59:15.759Z,0.00
2018-12-25T06:01:45.538Z,0.10
2018-12-25T06:04:15.320Z,0.10
2018-12-25T06:06:45.154Z,0.10
2018-12-25T06:09:14.955Z,0.00
2018-12-25T06:11:44.731Z,0.00
2018-12-25T06:14:14.488Z,0.00
2018-12-25T06:16:44.255Z,0.10
2018-12-25T06:19:14.015Z,0.10
2018-12-25T06:21:43.823Z,0.10
2018-12-25T06:24:13.654Z,0.10
2018-12-25T06:27:02.486Z,0.10
2018-12-25T06:29:32.326Z,0.10
2018-12-25T06:32:02.081Z,0.10
2018-12-25T06:34:50.897Z,0.10
2018-12-25T06:37:39.710Z,0.10
2018-12-25T06:40:09.516Z,0.10
2018-12-25T06:45:29.182Z,0.10
2018-12-25T06:47:58.946Z,0.10
2018-12-25T06:50:47.903Z,0.20
2018-12-25T07:02:46.923Z,0.20
2018-12-25T07:05:35.630Z,0.30
2018-12-25T07:14:30.011Z,0.30
2018-12-25T07:20:18.359Z,0.30
2018-12-25T07:22:48.127Z,0.30
2018-12-25T07:25:36.914Z,0.20
2018-12-25T07:40:10.563Z,0.20
2018-12-25T07:45:49.051Z,0.30
2018-12-25T07:48:18.811Z,0.30
2018-12-25T07:50:48.571Z,0.30
2018-12-25T07:53:37.274Z,0.30
2018-12-25T07:56:25.978Z,0.30
2018-12-25T07:58:55.811Z,0.30
2018-12-25T08:01:44.515Z,0.40
2018-12-25T08:04:33.264Z,0.30
2018-12-25T08:22:27.995Z,0.40
2018-12-25T08:24:57.750Z,0.50
2018-12-25T08:27:27.518Z,0.50
2018-12-25T08:29:57.366Z,0.50
2018-12-25T08:33:14.256Z,0.50
2018-12-25T08:35:43.590Z,0.60
2018-12-25T08:38:32.014Z,0.60
2018-12-25T08:41:20.426Z,0.60
2018-12-25T08:43:49.757Z,0.50
2018-12-25T08:46:19.084Z,0.50
2018-12-25T08:48:48.490Z,0.50
2018-12-25T08:51:17.826Z,0.50
2018-12-25T08:53:47.231Z,0.50
2018-12-25T08:56:16.652Z,0.60
2018-12-25T08:58:46.060Z,0.60
2018-12-25T09:01:15.386Z,0.60
2018-12-25T09:03:44.707Z,0.60
2018-12-25T09:06:14.259Z,0.70
2018-12-25T09:08:43.590Z,0.70
2018-12-25T09:11:12.919Z,0.70
2018-12-25T09:13:42.246Z,0.80
2018-12-25T09:16:11.574Z,0.80
2018-12-25T09:18:40.932Z,0.90
2018-12-25T09:21:10.331Z,0.90
2018-12-25T09:23:39.691Z,1.00
2018-12-25T09:26:09.022Z,1.00
2018-12-25T09:28:38.380Z,1.00
2018-12-25T09:31:07.789Z,1.00
2018-12-25T09:33:37.186Z,1.10
2018-12-25T09:36:06.590Z,1.10
2018-12-25T09:38:35.930Z,1.00
2018-12-25T09:41:05.297Z,1.00
2018-12-25T09:43:34.775Z,1.00
2018-12-25T09:46:06.157Z,1.00
2018-12-25T09:48:35.151Z,1.10
2018-12-25T09:51:23.589Z,1.10
2018-12-25T09:53:52.990Z,1.10
2018-12-25T09:56:41.481Z,1.10
2018-12-25T09:59:11.039Z,1.20
2018-12-25T10:01:59.422Z,1.10
2018-12-25T10:04:28.817Z,1.20
2018-12-25T10:07:17.270Z,1.20
2018-12-25T10:09:46.643Z,1.20
2018-12-25T10:12:16.067Z,1.20
2018-12-25T10:15:04.736Z,1.30
2018-12-25T10:17:34.090Z,1.40
2018-12-25T10:20:22.494Z,1.40
2018-12-25T10:23:07.731Z,1.50
2018-12-25T10:34:52.287Z,2.00
2018-12-25T10:37:40.718Z,2.00
2018-12-25T10:40:10.079Z,2.10
2018-12-25T10:42:58.570Z,2.20
2018-12-25T10:49:02.314Z,2.20
2018-12-25T11:16:27.303Z,2.30
2018-12-25T11:18:56.631Z,2.40
2018-12-25T11:21:25.955Z,2.40
2018-12-25T11:23:55.294Z,2.50
2018-12-25T11:26:24.627Z,2.50
2018-12-25T11:28:54.447Z,2.50
2018-12-25T11:31:23.789Z,2.60
2018-12-25T11:36:57.167Z,2.70
2018-12-25T11:54:53.270Z,2.90
2018-12-25T11:57:41.731Z,2.80
2018-12-25T12:00:11.115Z,2.80
2018-12-25T12:02:59.610Z,2.90
2018-12-25T12:08:33.642Z,2.90
2018-12-25T12:11:22.045Z,2.90
2018-12-25T12:13:51.446Z,3.00
2018-12-25T12:16:39.862Z,2.90
2018-12-25T12:25:02.418Z,2.90
2018-12-25T12:27:50.802Z,2.90
2018-12-25T12:55:01.110Z,3.00
2018-12-25T12:57:49.559Z,3.00
2018-12-25T13:06:29.326Z,2.90
2018-12-25T13:09:17.699Z,2.90
2018-12-25T13:11:47.050Z,2.90
2018-12-25T13:14:16.363Z,2.90
2018-12-25T13:16:45.712Z,3.00
2018-12-25T13:19:34.171Z,3.00
2018-12-25T13:22:03.498Z,3.00
2018-12-25T13:24:51.882Z,3.10
2018-12-25T13:27:40.272Z,3.00
2018-12-25T13:45:48.527Z,2.80
2018-12-25T13:48:36.982Z,2.90
2018-12-25T13:54:00.550Z,2.80
2018-12-25T13:56:49.030Z,2.70
2018-12-25T13:59:18.375Z,2.70
2018-12-25T14:01:47.695Z,2.60
2018-12-25T14:04:17.022Z,2.60
2018-12-25T14:07:05.471Z,2.60
2018-12-25T14:09:34.816Z,2.60
2018-12-25T14:12:04.149Z,2.60
2018-12-25T14:14:33.475Z,2.50
2018-12-25T14:17:02.814Z,2.40
2018-12-25T14:19:32.139Z,2.40
2018-12-25T14:22:01.481Z,2.30
2018-12-25T14:24:30.978Z,2.30
2018-12-25T14:27:00.312Z,2.20
2018-12-25T14:29:29.643Z,2.20
2018-12-25T14:31:58.986Z,2.20
2018-12-25T14:34:28.318Z,2.10
2018-12-25T14:36:57.642Z,2.10
2018-12-25T14:39:26.973Z,2.00
2018-12-25T14:41:56.306Z,2.00
2018-12-25T14:44:25.662Z,1.90
2018-12-25T14:46:55.070Z,1.90
2018-12-25T14:49:24.394Z,1.90
2018-12-25T14:51:53.717Z,1.90
2018-12-25T14:54:23.090Z,1.90
2018-12-25T14:56:52.558Z,1.90
2018-12-25T14:59:21.942Z,1.90
2018-12-25T15:01:51.283Z,2.00
2018-12-25T15:04:20.627Z,2.00
2018-12-25T15:06:50.034Z,2.00
2018-12-25T15:09:19.381Z,2.00
2018-12-25T15:11:48.706Z,2.00
2018-12-25T15:14:18.071Z,2.00
2018-12-25T15:16:47.399Z,2.00
2018-12-25T15:19:16.726Z,2.00
2018-12-25T15:21:46.058Z,2.00
2018-12-25T15:24:15.390Z,2.10
2018-12-25T15:26:44.724Z,2.10
2018-12-25T15:29:14.064Z,2.00
2018-12-25T15:31:43.769Z,2.10
2018-12-25T15:34:13.167Z,2.10
2018-12-25T15:36:42.510Z,2.10
2018-12-25T15:39:13.905Z,2.10
2018-12-25T15:41:43.255Z,2.10
2018-12-25T15:44:12.687Z,2.10
2018-12-25T15:46:42.090Z,2.10
2018-12-25T15:49:11.421Z,2.10
2018-12-25T15:51:40.746Z,2.10
2018-12-25T15:54:10.067Z,2.20
2018-12-25T15:56:39.390Z,2.20
2018-12-25T15:59:08.728Z,2.20
2018-12-25T16:01:38.063Z,2.20
2018-12-25T16:04:07.398Z,2.30
2018-12-25T16:06:36.752Z,2.30
2018-12-25T16:09:07.538Z,2.40
2018-12-25T16:11:36.895Z,2.40
2018-12-25T16:14:06.238Z,2.40
2018-12-25T16:16:35.673Z,2.40
2018-12-25T16:19:05.068Z,2.50
2018-12-25T16:21:34.398Z,2.50
2018-12-25T16:24:03.785Z,2.50
2018-12-25T16:26:33.106Z,2.50
2018-12-25T16:29:02.478Z,2.60
2018-12-25T16:31:31.814Z,2.70
2018-12-25T16:34:01.198Z,2.70
2018-12-25T16:36:30.590Z,2.70
2018-12-25T16:41:47.915Z,2.70
2018-12-25T16:44:17.243Z,2.70
2018-12-25T16:46:46.642Z,2.70
2018-12-25T16:49:35.096Z,2.80
2018-12-25T16:52:23.475Z,2.80
2018-12-25T16:54:52.807Z,2.80
2018-12-25T16:57:41.178Z,2.90
2018-12-25T17:00:11.103Z,2.80
2018-12-25T17:02:59.683Z,2.80
2018-12-25T17:05:29.106Z,2.80
2018-12-25T17:08:17.478Z,2.90
2018-12-25T17:11:05.875Z,2.90
2018-12-25T17:22:50.823Z,2.90
2018-12-25T17:25:20.156Z,2.90
2018-12-25T17:28:08.602Z,2.90
2018-12-25T17:30:37.923Z,3.00
2018-12-25T17:35:55.074Z,3.00
2018-12-25T17:38:24.411Z,3.00
2018-12-25T17:40:53.741Z,3.00
2018-12-25T17:43:23.074Z,3.00
2018-12-25T17:45:52.412Z,3.10
2018-12-25T17:48:21.751Z,3.10
2018-12-25T17:50:51.215Z,3.10
2018-12-25T17:53:20.579Z,3.20
2018-12-25T17:55:49.994Z,3.20
2018-12-25T17:58:19.319Z,3.20
2018-12-25T18:00:48.647Z,3.20
2018-12-25T18:03:18.094Z,3.30
2018-12-25T18:05:47.497Z,3.30
2018-12-25T18:08:16.956Z,3.30
2018-12-25T18:10:46.275Z,3.30
2018-12-25T18:13:15.647Z,3.30
2018-12-25T18:15:44.995Z,3.30
2018-12-25T18:18:14.387Z,3.30
2018-12-25T18:20:43.782Z,3.30
2018-12-25T18:23:13.156Z,3.20
2018-12-25T18:25:42.486Z,3.20
2018-12-25T18:28:11.852Z,3.20
2018-12-25T18:31:00.234Z,3.30
2018-12-25T18:33:29.586Z,3.20
2018-12-25T18:35:58.914Z,3.30
2018-12-25T18:38:28.246Z,3.20
2018-12-25T18:40:57.577Z,3.30
2018-12-25T18:43:26.927Z,3.40
2018-12-25T18:45:56.327Z,3.30
2018-12-25T18:48:25.656Z,3.40
2018-12-25T18:50:55.000Z,3.30
2018-12-25T18:53:24.330Z,3.30
2018-12-25T18:55:53.681Z,3.20
2018-12-25T18:58:23.007Z,3.20
2018-12-25T19:00:52.334Z,3.20
2018-12-25T19:03:21.659Z,3.10
2018-12-25T19:05:51.050Z,3.10
2018-12-25T19:08:20.522Z,3.10
2018-12-25T19:10:49.854Z,3.10
2018-12-25T19:13:19.199Z,3.00
2018-12-25T19:15:50.130Z,3.10
2018-12-25T19:18:19.452Z,3.10
2018-12-25T19:20:48.802Z,3.10
2018-12-25T19:23:18.268Z,3.10
2018-12-25T19:25:47.762Z,3.10
2018-12-25T19:28:17.087Z,3.00
2018-12-25T19:30:46.501Z,3.00
2018-12-25T19:33:15.851Z,3.00
2018-12-25T19:35:45.194Z,3.00
2018-12-25T19:38:14.539Z,3.00
2018-12-25T19:40:43.904Z,3.00
2018-12-25T19:43:13.266Z,3.00
2018-12-25T19:46:00.282Z,3.10
2018-12-25T19:48:29.607Z,3.10
2018-12-25T19:50:58.935Z,3.00
2018-12-25T19:53:28.254Z,2.90
2018-12-25T19:55:57.599Z,3.00
2018-12-25T19:58:46.054Z,3.00
2018-12-25T20:11:13.200Z,3.10
2018-12-25T20:36:20.895Z,3.20
2018-12-25T21:01:33.620Z,2.90
2018-12-25T21:04:36.189Z,2.90
2018-12-25T21:07:58.499Z,2.80
2018-12-25T21:11:03.318Z,2.70
2018-12-25T21:57:25.391Z,2.60
2018-12-25T21:59:55.078Z,2.70
2018-12-25T22:02:43.535Z,2.70
2018-12-25T22:05:32.111Z,2.80
2018-12-25T22:11:06.622Z,2.70
2018-12-25T22:13:55.071Z,2.80
2018-12-25T22:16:24.542Z,2.70
2018-12-25T22:21:58.679Z,2.70
2018-12-25T22:24:47.055Z,2.70
2018-12-25T22:36:31.487Z,2.80
2018-12-25T22:39:19.855Z,2.80
2018-12-25T22:41:49.178Z,2.70
2018-12-25T22:44:18.514Z,2.80
2018-12-25T22:46:47.845Z,2.80
2018-12-25T22:49:17.264Z,2.70
2018-12-25T22:51:46.662Z,2.70
2018-12-25T22:54:16.046Z,2.80
2018-12-25T22:56:45.402Z,2.70
2018-12-25T22:59:33.838Z,2.70
2018-12-25T23:02:03.233Z,2.70
2018-12-25T23:04:32.550Z,2.70
2018-12-25T23:07:01.883Z,2.60
2018-12-25T23:09:31.210Z,2.70
2018-12-25T23:12:00.530Z,2.70
2018-12-25T23:14:29.861Z,2.70
2018-12-25T23:17:18.275Z,2.70
2018-12-25T23:19:47.626Z,2.70
2018-12-25T23:22:17.014Z,2.70
2018-12-25T23:24:46.346Z,2.70
2018-12-25T23:27:15.688Z,2.80
2018-12-25T23:30:05.110Z,2.80
2018-12-25T23:32:34.430Z,2.80
2018-12-25T23:35:03.778Z,2.80
2018-12-25T23:37:33.219Z,2.90
2018-12-25T23:40:02.614Z,2.90
2018-12-25T23:42:31.939Z,3.00
2018-12-25T23:45:02.917Z,3.10
2018-12-25T23:47:32.480Z,3.10
2018-12-25T23:50:01.875Z,3.20
2018-12-25T23:52:31.214Z,3.20
2018-12-25T23:55:00.642Z,3.20
2018-12-25T23:57:29.974Z,3.20
2018-12-25T23:59:59.393Z,3.20
